createdAt,value
2023-10-20T00:02:19.207Z,62.87
2023-10-20T00:04:58.909Z,63.05
2023-10-20T00:07:39.197Z,63.57
2023-10-20T00:10:19.235Z,62.43
2023-10-20T00:13:01.623Z,61.80
2023-10-20T00:15:41.235Z,63.40
2023-10-20T00:18:20.907Z,64.88
2023-10-20T00:21:00.571Z,64.59
2023-10-20T00:23:40.046Z,64.43
2023-10-20T00:26:19.779Z,61.08
2023-10-20T00:28:59.359Z,63.55
2023-10-20T00:31:39.957Z,63.40
2023-10-20T00:34:19.620Z,65.70
2023-10-20T00:36:59.162Z,62.53
2023-10-20T00:39:38.891Z,63.43
2023-10-20T00:42:18.621Z,62.20
2023-10-20T00:44:58.137Z,64.47
2023-10-20T00:47:41.393Z,63.99
2023-10-20T00:50:21.759Z,63.49
2023-10-20T00:53:02.678Z,53.82
2023-10-20T00:55:43.033Z,52.29
2023-10-20T00:58:22.991Z,64.24
2023-10-20T01:01:05.649Z,63.36
2023-10-20T01:03:45.767Z,61.71
2023-10-20T01:06:26.565Z,61.24
2023-10-20T01:09:14.096Z,62.20
2023-10-20T01:11:54.276Z,63.81
2023-10-20T01:14:34.363Z,62.18
2023-10-20T01:17:13.981Z,62.58
2023-10-20T01:19:55.355Z,63.15
2023-10-20T01:22:36.196Z,62.77
2023-10-20T01:25:18.042Z,64.92
2023-10-20T01:27:57.723Z,66.57
2023-10-20T01:30:37.327Z,66.15
2023-10-20T01:33:19.459Z,64.82
2023-10-20T01:36:01.147Z,65.42
2023-10-20T01:38:40.767Z,65.06
2023-10-20T01:41:25.631Z,65.38
2023-10-20T01:44:05.329Z,63.25
2023-10-20T01:46:50.844Z,65.62
2023-10-20T01:49:30.410Z,64.29
2023-10-20T01:52:10.184Z,64.97
2023-10-20T01:54:52.555Z,66.23
2023-10-20T01:57:32.109Z,64.14
2023-10-20T02:00:15.114Z,64.07
2023-10-20T02:02:55.032Z,64.74
2023-10-20T02:08:14.711Z,64.68
2023-10-20T02:10:54.373Z,65.15
2023-10-20T02:13:36.571Z,64.13
2023-10-20T02:16:16.885Z,65.71
2023-10-20T02:19:00.439Z,63.36
2023-10-20T02:21:40.387Z,63.95
2023-10-20T02:24:20.012Z,64.89
2023-10-20T02:27:00.061Z,64.66
2023-10-20T02:29:39.744Z,64.11
2023-10-20T02:32:19.333Z,63.10
2023-10-20T02:34:58.893Z,64.92
2023-10-20T02:37:38.665Z,65.64
2023-10-20T02:40:18.379Z,65.38
2023-10-20T02:42:57.961Z,64.67
2023-10-20T02:45:39.810Z,65.55
2023-10-20T02:48:19.770Z,65.32
2023-10-20T02:50:59.347Z,65.62
2023-10-20T02:53:41.873Z,65.37
2023-10-20T02:56:24.884Z,64.88
2023-10-20T02:59:05.305Z,63.46
2023-10-20T03:01:47.331Z,63.55
2023-10-20T03:04:27.107Z,63.35
2023-10-20T03:07:06.750Z,64.47
2023-10-20T03:09:46.316Z,65.13
2023-10-20T03:12:25.930Z,64.06
2023-10-20T03:15:07.848Z,61.81
2023-10-20T03:17:47.618Z,64.45
2023-10-20T03:20:31.625Z,65.92
2023-10-20T03:23:11.288Z,64.13
2023-10-20T03:25:51.089Z,63.76
2023-10-20T03:28:30.812Z,63.29
2023-10-20T03:31:10.446Z,64.79
2023-10-20T03:33:50.147Z,64.62
2023-10-20T03:36:29.845Z,64.91
2023-10-20T03:39:21.942Z,63.64
2023-10-20T03:42:03.807Z,63.27
2023-10-20T03:44:44.865Z,62.42
2023-10-20T03:47:30.538Z,62.58
2023-10-20T03:50:20.910Z,64.33
2023-10-20T03:52:59.758Z,64.25
2023-10-20T03:55:39.264Z,64.38
2023-10-20T03:58:21.531Z,64.50
2023-10-20T04:01:05.013Z,64.92
2023-10-20T04:03:50.991Z,65.28
2023-10-20T04:06:30.300Z,60.52
2023-10-20T04:09:11.055Z,64.95
2023-10-20T04:11:51.148Z,64.73
2023-10-20T04:14:31.548Z,65.97
2023-10-20T04:17:10.958Z,65.82
2023-10-20T04:19:50.869Z,66.30
2023-10-20T04:22:31.193Z,64.77
2023-10-20T04:25:14.143Z,63.01
2023-10-20T04:28:02.361Z,64.26
2023-10-20T04:31:00.748Z,63.57
2023-10-20T04:33:59.252Z,52.21
2023-10-20T04:36:58.777Z,64.11
2023-10-20T04:39:57.494Z,63.67
2023-10-20T04:42:36.993Z,65.14
2023-10-20T04:45:27.383Z,65.19
2023-10-20T04:48:45.150Z,64.42
2023-10-20T04:51:43.476Z,60.54
2023-10-20T04:54:45.768Z,65.75
2023-10-20T04:57:25.433Z,66.32
2023-10-20T05:00:25.657Z,65.59
2023-10-20T05:03:05.892Z,64.81
2023-10-20T05:05:54.773Z,68.61
2023-10-20T05:08:34.402Z,63.86
2023-10-20T05:11:14.035Z,61.48
2023-10-20T05:13:56.627Z,61.61
2023-10-20T05:16:36.314Z,61.70
2023-10-20T05:19:16.101Z,62.80
2023-10-20T05:21:56.812Z,63.69
2023-10-20T05:24:36.451Z,62.65
2023-10-20T05:27:16.183Z,60.57
2023-10-20T05:29:56.038Z,61.20
2023-10-20T05:32:36.376Z,61.97
2023-10-20T05:35:16.010Z,61.02
2023-10-20T05:37:56.400Z,61.70
2023-10-20T05:40:40.629Z,61.69
2023-10-20T05:43:20.255Z,64.26
2023-10-20T05:45:59.908Z,63.21
2023-10-20T05:48:39.898Z,61.34
2023-10-20T05:51:19.943Z,64.74
2023-10-20T05:53:59.604Z,61.64
2023-10-20T05:56:39.793Z,65.12
2023-10-20T05:59:19.240Z,59.71
2023-10-20T06:02:00.923Z,58.08
2023-10-20T06:04:40.586Z,63.28
2023-10-20T06:07:23.124Z,64.08
2023-10-20T06:10:02.762Z,63.89
2023-10-20T06:12:42.516Z,63.30
2023-10-20T06:15:23.090Z,61.08
2023-10-20T06:18:02.804Z,63.06
2023-10-20T06:20:43.056Z,64.52
2023-10-20T06:23:23.917Z,63.68
2023-10-20T06:26:03.604Z,58.70
2023-10-20T06:28:47.012Z,59.50
2023-10-20T06:31:30.119Z,64.70
2023-10-20T06:34:13.203Z,64.59
2023-10-20T06:37:10.076Z,64.07
2023-10-20T06:39:49.782Z,65.26
2023-10-20T06:42:30.010Z,64.99
2023-10-20T06:45:11.721Z,64.98
2023-10-20T06:47:51.856Z,63.22
2023-10-20T06:50:33.400Z,65.78
2023-10-20T06:53:15.457Z,64.95
2023-10-20T06:56:13.948Z,62.74
2023-10-20T06:58:42.789Z,62.75
2023-10-20T07:01:22.525Z,60.83
2023-10-20T07:04:07.910Z,61.40
2023-10-20T07:06:47.666Z,61.07
2023-10-20T07:09:27.967Z,62.17
2023-10-20T07:12:14.713Z,64.50
2023-10-20T07:14:50.825Z,66.22
2023-10-20T07:17:30.627Z,66.00
2023-10-20T07:20:10.945Z,65.70
2023-10-20T07:22:50.484Z,63.54
2023-10-20T07:25:30.162Z,63.14
2023-10-20T07:28:09.759Z,63.82
2023-10-20T07:30:49.978Z,65.19
2023-10-20T07:33:33.255Z,69.10
2023-10-20T07:36:12.868Z,68.71
2023-10-20T07:38:52.535Z,60.64
2023-10-20T07:41:32.113Z,66.63
2023-10-20T07:44:20.214Z,66.68
2023-10-20T07:46:59.762Z,65.90
2023-10-20T07:49:40.574Z,67.14
2023-10-20T07:52:20.751Z,66.70
2023-10-20T07:55:00.448Z,65.67
2023-10-20T07:57:40.106Z,67.03
2023-10-20T08:00:20.155Z,64.51
2023-10-20T08:03:00.208Z,65.93
2023-10-20T08:05:41.647Z,64.98
2023-10-20T08:08:20.988Z,65.87
2023-10-20T08:11:00.876Z,65.67
2023-10-20T08:13:42.631Z,64.36
2023-10-20T08:16:23.383Z,69.48
2023-10-20T08:19:03.211Z,68.05
2023-10-20T08:21:47.727Z,64.85
2023-10-20T08:24:27.415Z,67.15
2023-10-20T08:27:07.169Z,60.79
2023-10-20T08:29:56.757Z,66.60
2023-10-20T08:32:38.200Z,64.71
2023-10-20T08:35:17.871Z,66.78
2023-10-20T08:38:08.760Z,66.67
2023-10-20T08:41:08.129Z,63.18
2023-10-20T08:43:30.058Z,64.33
2023-10-20T08:46:11.471Z,65.53
2023-10-20T08:48:51.345Z,65.42
2023-10-20T08:51:33.125Z,65.63
2023-10-20T08:54:23.942Z,65.65
2023-10-20T08:57:12.037Z,65.65
2023-10-20T08:59:54.887Z,66.81
2023-10-20T09:02:41.383Z,67.92
2023-10-20T09:05:24.593Z,67.04
2023-10-20T09:08:04.947Z,68.62
2023-10-20T09:10:47.181Z,65.06
2023-10-20T09:13:39.415Z,63.74
2023-10-20T09:16:19.264Z,64.41
2023-10-20T09:18:58.822Z,63.87
2023-10-20T09:21:43.519Z,62.62
2023-10-20T09:24:29.398Z,61.89
2023-10-20T09:27:10.425Z,63.53
2023-10-20T09:29:49.421Z,64.66
2023-10-20T09:32:32.217Z,65.44
2023-10-20T09:35:12.295Z,64.63
2023-10-20T09:37:55.790Z,64.86
2023-10-20T09:40:36.039Z,65.42
2023-10-20T09:43:30.282Z,63.92
2023-10-20T09:46:43.124Z,63.52
2023-10-20T09:49:30.093Z,64.24
2023-10-20T09:52:12.349Z,66.48
2023-10-20T09:54:54.343Z,66.32
2023-10-20T09:57:34.606Z,66.20
2023-10-20T10:00:14.888Z,64.74
2023-10-20T10:03:00.752Z,64.61
2023-10-20T10:05:45.085Z,65.31
2023-10-20T10:08:23.297Z,65.50
2023-10-20T10:11:22.379Z,64.70
2023-10-20T10:14:06.598Z,64.22
2023-10-20T10:17:00.024Z,66.15
2023-10-20T10:19:37.315Z,64.88
2023-10-20T10:22:17.885Z,66.61
2023-10-20T10:25:02.272Z,65.63
2023-10-20T10:27:44.107Z,65.71
2023-10-20T10:30:31.370Z,64.49
2023-10-20T10:33:14.025Z,61.16
2023-10-20T10:36:08.691Z,66.92
2023-10-20T10:38:48.941Z,66.21
2023-10-20T10:41:29.285Z,66.54
2023-10-20T10:44:10.088Z,66.07
2023-10-20T10:46:49.854Z,64.11
2023-10-20T10:49:29.497Z,66.17
2023-10-20T10:52:09.270Z,65.33
2023-10-20T10:54:49.187Z,68.88
2023-10-20T10:57:30.364Z,67.07
2023-10-20T11:00:10.301Z,68.43
2023-10-20T11:02:51.179Z,60.70
2023-10-20T11:05:32.340Z,62.65
2023-10-20T11:08:14.416Z,66.75
2023-10-20T11:10:52.435Z,65.96
2023-10-20T11:13:34.065Z,64.10
2023-10-20T11:16:16.388Z,67.33
2023-10-20T11:18:56.325Z,68.95
2023-10-20T11:21:53.410Z,68.25
2023-10-20T11:24:37.621Z,67.81
2023-10-20T11:27:15.083Z,67.67
2023-10-20T11:29:58.914Z,66.47
2023-10-20T11:32:34.502Z,66.22
2023-10-20T11:35:14.054Z,66.77
2023-10-20T11:37:55.232Z,67.02
2023-10-20T11:40:34.630Z,68.57
2023-10-20T11:43:14.188Z,63.96
2023-10-20T11:45:54.930Z,64.58
2023-10-20T11:48:34.625Z,64.62
2023-10-20T11:51:15.032Z,64.75
2023-10-20T11:53:54.929Z,62.49
2023-10-20T11:56:36.308Z,64.10
2023-10-20T11:59:17.929Z,59.26
2023-10-20T12:01:57.576Z,63.28
2023-10-20T12:04:37.458Z,64.93
2023-10-20T12:07:16.520Z,65.39
2023-10-20T12:09:58.123Z,64.52
2023-10-20T12:12:40.924Z,62.45
2023-10-20T12:15:23.516Z,62.27
2023-10-20T12:18:03.292Z,63.26
2023-10-20T12:20:43.190Z,64.13
2023-10-20T12:23:22.602Z,63.77
2023-10-20T12:26:04.572Z,64.89
2023-10-20T12:28:44.238Z,64.07
2023-10-20T12:31:27.800Z,65.53
2023-10-20T12:34:07.324Z,64.52
2023-10-20T12:36:47.518Z,64.42
2023-10-20T12:39:29.431Z,66.25
2023-10-20T12:42:09.106Z,65.10
2023-10-20T12:44:48.824Z,63.56
2023-10-20T12:47:28.757Z,63.74
2023-10-20T12:50:09.726Z,60.88
2023-10-20T12:52:52.297Z,61.90
2023-10-20T12:58:12.208Z,61.92
2023-10-20T13:00:51.837Z,61.07
2023-10-20T13:03:31.861Z,61.43
2023-10-20T13:06:12.047Z,62.30
2023-10-20T13:08:52.644Z,60.92
2023-10-20T13:11:32.258Z,61.71
2023-10-20T13:14:11.904Z,63.35
2023-10-20T13:16:52.020Z,61.11
2023-10-20T13:19:31.750Z,59.58
2023-10-20T13:22:13.715Z,60.45
2023-10-20T13:24:54.008Z,58.80
2023-10-20T13:27:34.516Z,60.98
2023-10-20T13:30:14.411Z,60.18
2023-10-20T13:32:54.770Z,59.46
2023-10-20T13:35:42.326Z,59.68
2023-10-20T13:38:32.774Z,60.27
2023-10-20T13:41:01.390Z,61.69
2023-10-20T13:43:43.064Z,61.52
2023-10-20T13:46:22.615Z,62.04
2023-10-20T13:49:02.233Z,61.58
2023-10-20T13:51:42.126Z,61.95
2023-10-20T13:54:21.645Z,60.95
2023-10-20T13:57:02.060Z,61.95
2023-10-20T13:59:50.133Z,56.76
2023-10-20T14:02:38.441Z,57.93
2023-10-20T14:05:20.440Z,59.29
2023-10-20T14:08:04.854Z,59.00
2023-10-20T14:10:44.446Z,59.54
2023-10-20T14:13:24.054Z,56.58
2023-10-20T14:16:04.803Z,59.93
2023-10-20T14:18:44.284Z,64.13
2023-10-20T14:21:24.676Z,60.01
2023-10-20T14:24:04.548Z,62.19
2023-10-20T14:26:52.772Z,38.04
2023-10-20T14:29:41.801Z,36.63
2023-10-20T14:32:30.160Z,40.15
2023-10-20T14:35:18.334Z,37.12
2023-10-20T14:38:07.907Z,36.58
2023-10-20T14:41:08.465Z,38.29
2023-10-20T14:43:56.681Z,47.78
2023-10-20T14:46:36.059Z,65.65
2023-10-20T14:49:15.687Z,57.78
2023-10-20T14:51:55.134Z,75.30
2023-10-20T14:54:34.887Z,77.34
2023-10-20T14:57:14.352Z,69.49
2023-10-20T14:59:54.034Z,87.13
2023-10-20T15:02:33.563Z,85.44
2023-10-20T15:05:13.079Z,86.91
2023-10-20T15:07:52.574Z,87.06
2023-10-20T15:10:32.153Z,87.09
2023-10-20T15:13:11.734Z,87.85
2023-10-20T15:15:51.346Z,88.10
2023-10-20T15:18:31.734Z,88.06
2023-10-20T15:21:11.571Z,88.33
2023-10-20T15:23:55.226Z,88.27
2023-10-20T15:26:34.923Z,88.17
2023-10-20T15:29:14.594Z,88.10
2023-10-20T15:31:54.414Z,87.83
2023-10-20T15:34:33.936Z,87.91
2023-10-20T15:37:13.570Z,87.87
2023-10-20T15:40:00.780Z,87.72
2023-10-20T15:42:33.289Z,88.33
2023-10-20T15:45:13.111Z,88.00
2023-10-20T15:47:52.827Z,88.29
2023-10-20T15:50:34.148Z,88.23
2023-10-20T15:53:13.521Z,88.22
2023-10-20T15:55:56.144Z,42.93
2023-10-20T15:58:36.939Z,43.87
2023-10-20T16:01:16.643Z,53.46
2023-10-20T16:03:56.371Z,61.73
2023-10-20T16:06:35.744Z,71.99
2023-10-20T16:09:17.523Z,70.72
2023-10-20T16:11:55.239Z,67.24
2023-10-20T16:14:34.934Z,45.44
2023-10-20T16:17:14.512Z,42.65
2023-10-20T16:19:54.092Z,54.32
2023-10-20T16:22:33.803Z,64.01
2023-10-20T16:25:13.539Z,44.97
2023-10-20T16:27:53.222Z,51.47
2023-10-20T16:30:32.936Z,53.37
2023-10-20T16:33:14.413Z,53.40
2023-10-20T16:35:56.994Z,64.72
2023-10-20T16:38:36.965Z,55.68
2023-10-20T16:41:19.214Z,65.95
2023-10-20T16:43:58.868Z,65.55
2023-10-20T16:49:21.151Z,62.91
2023-10-20T16:52:00.682Z,52.24
2023-10-20T16:54:40.463Z,66.04
2023-10-20T16:57:21.236Z,66.56
2023-10-20T17:00:00.988Z,66.25
2023-10-20T17:02:40.746Z,68.06
2023-10-20T17:05:20.324Z,67.13
2023-10-20T17:08:00.294Z,68.25
2023-10-20T17:10:41.406Z,67.46
2023-10-20T17:13:21.130Z,68.80
2023-10-20T17:16:19.483Z,67.62
2023-10-20T17:19:00.461Z,70.74
2023-10-20T17:21:40.116Z,79.92
2023-10-20T17:24:19.226Z,88.90
2023-10-20T17:26:57.589Z,89.25
2023-10-20T17:29:37.452Z,89.97
2023-10-20T17:32:17.394Z,90.28
2023-10-20T17:34:57.112Z,90.50
2023-10-20T17:40:17.129Z,90.60
2023-10-20T17:42:56.739Z,90.37
2023-10-20T17:45:41.128Z,90.24
2023-10-20T17:48:20.744Z,90.31
2023-10-20T17:51:01.927Z,90.60
2023-10-20T17:53:42.240Z,90.81
2023-10-20T17:56:21.966Z,90.57
2023-10-20T17:59:01.677Z,91.07
2023-10-20T18:01:41.790Z,91.58
2023-10-20T18:04:21.930Z,92.41
2023-10-20T18:07:01.755Z,92.89
2023-10-20T18:09:41.362Z,92.77
2023-10-20T18:12:26.667Z,92.69
2023-10-20T18:15:06.834Z,92.34
2023-10-20T18:17:46.551Z,92.47
2023-10-20T18:20:26.041Z,92.69
2023-10-20T18:23:06.591Z,92.68
2023-10-20T18:25:46.274Z,93.24
2023-10-20T18:28:25.907Z,93.01
2023-10-20T18:31:16.843Z,92.83
2023-10-20T18:33:58.732Z,93.03
2023-10-20T18:36:38.956Z,92.92
2023-10-20T18:39:23.357Z,92.80
2023-10-20T18:42:05.838Z,92.77
2023-10-20T18:44:45.269Z,92.58
2023-10-20T18:47:24.816Z,92.74
2023-10-20T18:50:05.290Z,92.66
2023-10-20T18:52:44.966Z,92.52
2023-10-20T18:55:24.778Z,92.04
2023-10-20T18:58:06.459Z,91.68
2023-10-20T19:00:46.125Z,92.07
2023-10-20T19:03:27.886Z,92.03
2023-10-20T19:06:10.640Z,92.29
2023-10-20T19:08:49.498Z,92.24
2023-10-20T19:11:29.167Z,91.98
2023-10-20T19:14:09.405Z,92.27
2023-10-20T19:16:49.824Z,92.15
2023-10-20T19:19:29.527Z,91.92
2023-10-20T19:22:09.265Z,91.99
2023-10-20T19:24:49.419Z,92.32
2023-10-20T19:27:36.654Z,92.25
2023-10-20T19:30:16.529Z,92.02
2023-10-20T19:32:56.270Z,92.00
2023-10-20T19:35:35.785Z,91.96
2023-10-20T19:38:15.375Z,92.24
2023-10-20T19:40:55.167Z,92.07
2023-10-20T19:43:34.798Z,92.13
2023-10-20T19:46:15.324Z,92.11
2023-10-20T19:48:55.009Z,92.36
2023-10-20T19:51:34.730Z,92.36
2023-10-20T19:54:14.459Z,92.47
2023-10-20T19:56:54.313Z,92.47
2023-10-20T19:59:34.416Z,92.51
2023-10-20T20:02:17.122Z,92.48
2023-10-20T20:04:56.813Z,92.40
2023-10-20T20:07:37.349Z,92.54
2023-10-20T20:10:17.034Z,92.64
2023-10-20T20:13:05.011Z,92.61
2023-10-20T20:15:51.907Z,92.73
2023-10-20T20:18:34.624Z,92.57
2023-10-20T20:21:14.218Z,92.01
2023-10-20T20:23:53.996Z,92.41
2023-10-20T20:26:33.775Z,92.57
2023-10-20T20:29:14.904Z,92.19
2023-10-20T20:31:59.896Z,92.30
2023-10-20T20:34:38.754Z,92.16
2023-10-20T20:37:18.458Z,92.04
2023-10-20T20:39:58.510Z,92.37
2023-10-20T20:42:38.239Z,92.38
2023-10-20T20:45:18.116Z,92.26
2023-10-20T20:47:59.052Z,92.39
2023-10-20T20:50:41.916Z,91.97
2023-10-20T20:53:21.576Z,92.07
2023-10-20T20:56:01.310Z,91.59
2023-10-20T20:58:41.351Z,91.54
2023-10-20T21:01:21.459Z,91.80
2023-10-20T21:04:02.237Z,91.89
2023-10-20T21:06:41.603Z,91.91
2023-10-20T21:09:24.595Z,91.99
2023-10-20T21:12:05.733Z,92.04
2023-10-20T21:14:48.490Z,92.17
2023-10-20T21:17:28.351Z,92.00
2023-10-20T21:20:09.930Z,92.43
2023-10-20T21:22:54.760Z,92.32
2023-10-20T21:25:40.578Z,92.22
2023-10-20T21:28:20.297Z,92.17
2023-10-20T21:31:04.543Z,91.97
2023-10-20T21:33:44.355Z,92.32
2023-10-20T21:36:24.059Z,92.11
2023-10-20T21:39:07.359Z,92.25
2023-10-20T21:41:46.975Z,92.46
2023-10-20T21:44:28.888Z,92.51
2023-10-20T21:47:08.618Z,92.44
2023-10-20T21:49:48.422Z,92.26
2023-10-20T21:52:28.492Z,92.18
2023-10-20T21:55:09.725Z,92.17
2023-10-20T21:57:49.351Z,92.33
2023-10-20T22:00:29.178Z,92.03
2023-10-20T22:03:08.939Z,92.30
2023-10-20T22:05:48.713Z,92.16
2023-10-20T22:08:28.763Z,92.43
2023-10-20T22:11:08.463Z,92.44
2023-10-20T22:13:55.443Z,92.42
2023-10-20T22:16:35.110Z,92.34
2023-10-20T22:19:14.699Z,92.44
2023-10-20T22:21:54.316Z,92.52
2023-10-20T22:24:34.059Z,92.61
2023-10-20T22:27:13.760Z,92.47
2023-10-20T22:29:53.408Z,91.97
2023-10-20T22:32:32.969Z,92.52
2023-10-20T22:35:15.333Z,92.62
2023-10-20T22:37:55.230Z,92.80
2023-10-20T22:40:34.887Z,92.76
2023-10-20T22:43:14.582Z,92.74
2023-10-20T22:45:56.786Z,92.85
2023-10-20T22:48:36.376Z,92.96
2023-10-20T22:51:16.079Z,92.88
2023-10-20T22:53:55.788Z,92.69
2023-10-20T22:56:35.405Z,92.37
2023-10-20T22:59:15.404Z,92.70
2023-10-20T23:01:55.055Z,92.70
2023-10-20T23:04:34.702Z,92.61
2023-10-20T23:07:14.263Z,92.78
2023-10-20T23:09:53.885Z,93.06
2023-10-20T23:12:34.663Z,93.04
2023-10-20T23:15:14.178Z,92.94
2023-10-20T23:17:54.086Z,92.84
2023-10-20T23:20:33.609Z,92.71
2023-10-20T23:23:13.292Z,92.67
2023-10-20T23:25:52.933Z,92.46
2023-10-20T23:28:32.566Z,92.54
2023-10-20T23:31:12.551Z,92.86
2023-10-20T23:33:52.227Z,92.85
2023-10-20T23:36:31.807Z,92.78
2023-10-20T23:39:12.795Z,92.46
2023-10-20T23:41:52.331Z,92.46
2023-10-20T23:44:34.373Z,92.11
2023-10-20T23:47:13.947Z,92.38
2023-10-20T23:49:53.678Z,92.83
2023-10-20T23:52:34.024Z,92.52
2023-10-20T23:55:13.607Z,92.67
2023-10-20T23:57:53.246Z,92.64
